Time;durP1;ratioP1;P1;durP2;ratioP2;P2;SDS_P1;SDS_P2;PMS_P1;PMS_P2;Temp;Humidity;BMP_temperature;BMP_pressure;BME280_temperature;BME280_humidity;BME280_pressure;Samples;Min_cycle;Max_cycle;Signal;HPM_P1;HPM_P2
2022/03/13 00:01:35;;;;;;;7.50;6.90;;;;;;;22.09;20.23;96044.72;6171607;28;102788;-72
2022/03/13 00:04:37;;;;;;;6.70;6.10;;;;;;;22.09;20.22;96042.06;6180058;28;104910;-73
2022/03/13 00:07:39;;;;;;;5.87;5.47;;;;;;;22.08;20.81;96048.44;6164531;28;103515;-72
2022/03/13 00:10:48;;;;;;;5.93;5.53;;;;;;;22.07;20.09;96042.31;6160395;28;103627;-73
2022/03/13 00:13:51;;;;;;;6.00;5.60;;;;;;;22.06;20.46;96046.06;6161923;28;103335;-73
2022/03/13 00:16:54;;;;;;;6.50;6.00;;;;;;;22.06;20.44;96046.06;6163610;28;103278;-74
2022/03/13 00:20:00;;;;;;;6.20;5.70;;;;;;;22.05;20.30;96049.00;6162057;28;103075;-72
2022/03/13 00:23:02;;;;;;;5.87;5.37;;;;;;;22.03;20.65;96040.47;6146800;28;106865;-72
2022/03/13 00:26:04;;;;;;;5.30;4.90;;;;;;;22.06;20.06;96042.59;6162915;28;103113;-71
2022/03/13 00:29:07;;;;;;;5.93;5.50;;;;;;;22.05;20.20;96038.34;6186696;28;102923;-72
2022/03/13 00:32:09;;;;;;;5.83;5.43;;;;;;;22.04;19.98;96036.72;6165712;28;103978;-75
2022/03/13 00:35:11;;;;;;;6.20;5.70;;;;;;;22.02;20.19;96038.88;6168532;28;103356;-73
2022/03/13 00:38:13;;;;;;;5.67;5.17;;;;;;;22.02;19.98;96034.34;6178322;28;105457;-73
2022/03/13 00:41:15;;;;;;;5.70;5.30;;;;;;;22.02;20.02;96034.34;6162826;28;105503;-71
2022/03/13 00:44:16;;;;;;;5.60;5.10;;;;;;;21.99;19.90;96026.88;6158385;28;103348;-71
2022/03/13 00:47:20;;;;;;;5.63;5.13;;;;;;;22.03;20.13;96038.59;6168066;28;103867;-72
2022/03/13 00:50:23;;;;;;;5.40;5.00;;;;;;;22.04;20.16;96034.88;6178346;28;102916;-73
2022/03/13 00:53:24;;;;;;;5.73;5.23;;;;;;;22.01;19.87;96031.97;6167213;28;105494;-74
2022/03/13 00:56:26;;;;;;;5.73;5.23;;;;;;;22.03;19.64;96024.50;6160302;28;105090;-72
2022/03/13 00:59:28;;;;;;;5.20;4.80;;;;;;;22.02;20.05;96018.38;6161443;28;102822;-72
2022/03/13 01:02:30;;;;;;;5.10;4.70;;;;;;;22.00;19.98;96023.16;6162595;28;106063;-73
2022/03/13 01:05:32;;;;;;;5.63;5.17;;;;;;;22.00;20.00;96019.69;6144685;28;103871;-76
2022/03/13 01:08:35;;;;;;;5.07;4.67;;;;;;;22.00;20.04;96017.03;6157565;28;103045;-73
2022/03/13 01:11:36;;;;;;;5.00;4.60;;;;;;;21.98;19.52;96013.84;6143355;28;103083;-72
2022/03/13 01:14:39;;;;;;;5.53;5.13;;;;;;;21.98;19.80;96011.19;6150846;28;104792;-72
2022/03/13 01:17:41;;;;;;;5.63;5.13;;;;;;;21.96;20.34;95997.38;6140710;28;103711;-71
2022/03/13 01:20:47;;;;;;;4.50;4.20;;;;;;;21.94;20.49;96002.97;6138864;28;104089;-71
2022/03/13 01:24:01;;;;;;;5.27;4.83;;;;;;;21.94;19.90;96002.97;6154893;28;105638;-74
2022/03/13 01:27:03;;;;;;;5.87;5.30;;;;;;;21.93;19.53;95999.53;6157981;28;104319;-72
2022/03/13 01:30:06;;;;;;;5.60;5.10;;;;;;;21.93;20.27;95999.53;6159709;28;102837;-76
2022/03/13 01:33:08;;;;;;;5.53;5.07;;;;;;;21.93;19.55;95994.19;6159660;28;103396;-73
2022/03/13 01:36:11;;;;;;;4.60;4.30;;;;;;;21.95;19.65;95987.81;6154769;28;104543;-71
2022/03/13 01:39:16;;;;;;;5.37;4.97;;;;;;;21.93;19.45;95978.22;6136088;28;103986;-74
2022/03/13 01:42:18;;;;;;;4.93;4.57;;;;;;;21.95;19.75;95979.81;6144748;28;104509;-72
2022/03/13 01:45:23;;;;;;;5.20;4.80;;;;;;;21.97;19.61;95972.34;6143941;28;103472;-73
2022/03/13 01:48:26;;;;;;;5.33;4.97;;;;;;;21.96;19.48;95973.44;6156198;28;103342;-72
2022/03/13 01:51:28;;;;;;;5.50;5.10;;;;;;;21.96;19.59;95976.88;6151120;28;104054;-72
2022/03/13 01:54:33;;;;;;;4.90;4.50;;;;;;;21.98;19.69;95982.72;6154387;28;103799;-72
2022/03/13 01:57:37;;;;;;;4.50;4.20;;;;;;;21.98;19.35;95987.25;6139206;28;104919;-72
2022/03/13 02:00:39;;;;;;;4.50;4.20;;;;;;;21.98;19.11;95992.56;6155576;28;103378;-73
2022/03/13 02:03:41;;;;;;;4.90;4.60;;;;;;;21.97;19.17;95997.09;6185183;28;103595;-71
2022/03/13 02:06:42;;;;;;;4.63;4.33;;;;;;;21.97;19.35;95999.75;6168023;28;104107;-72
2022/03/13 02:09:48;;;;;;;4.93;4.53;;;;;;;21.97;19.03;95997.09;6186488;28;106710;-72
2022/03/13 02:12:50;;;;;;;5.27;4.87;;;;;;;21.97;19.48;95993.66;6182557;28;102971;-70
2022/03/13 02:15:53;;;;;;;5.50;5.10;;;;;;;21.97;19.22;95993.66;6167536;28;103699;-74
2022/03/13 02:18:56;;;;;;;6.47;5.97;;;;;;;21.97;19.28;95999.75;6167186;28;103337;-72
2022/03/13 02:21:59;;;;;;;4.90;4.60;;;;;;;21.97;19.38;96005.09;6198084;28;103594;-74
2022/03/13 02:25:00;;;;;;;5.50;5.00;;;;;;;21.96;19.07;95992.84;6186920;28;104234;-73
2022/03/13 02:28:02;;;;;;;5.27;4.87;;;;;;;21.96;19.10;95997.38;6183943;28;103401;-72
2022/03/13 02:31:16;;;;;;;5.80;5.30;;;;;;;21.96;18.97;95998.16;6188214;28;103197;-75
2022/03/13 02:34:19;;;;;;;5.80;5.40;;;;;;;21.98;19.04;95995.22;6195173;28;104922;-74
2022/03/13 02:37:50;;;;;;;5.93;5.43;;;;;;;21.97;18.90;96004.28;6190998;28;104617;-73
2022/03/13 02:40:53;;;;;;;6.13;5.63;;;;;;;21.97;19.12;96002.41;6181690;28;104030;-74
2022/03/13 02:43:56;;;;;;;6.73;6.13;;;;;;;21.97;19.18;95990.97;6190222;28;103781;-74
2022/03/13 02:47:05;;;;;;;5.97;5.47;;;;;;;21.98;19.01;95997.91;6190284;28;103077;-74
2022/03/13 02:50:08;;;;;;;6.43;5.93;;;;;;;21.98;18.96;95995.22;6190440;28;102620;-74
2022/03/13 02:53:10;;;;;;;5.80;5.30;;;;;;;21.98;19.19;96003.22;6194652;28;103249;-74
2022/03/13 02:56:11;;;;;;;6.03;5.63;;;;;;;21.98;19.31;95992.56;6186047;28;103094;-73
2022/03/13 02:59:14;;;;;;;5.80;5.30;;;;;;;21.99;19.14;95997.63;6188425;28;103255;-73
2022/03/13 03:02:17;;;;;;;5.50;5.10;;;;;;;21.97;19.13;95988.31;6189780;28;102670;-73
2022/03/13 03:05:19;;;;;;;5.43;5.03;;;;;;;21.98;18.89;95990.72;6172995;28;103092;-76
2022/03/13 03:08:22;;;;;;;6.00;5.50;;;;;;;;;;6185739;28;106229;-74
2022/03/13 03:11:24;;;;;;;5.90;5.50;;;;;;;21.98;19.01;95989.91;6172417;28;103850;-73
2022/03/13 03:14:29;;;;;;;5.43;5.00;;;;;;;21.98;18.97;95984.59;6194772;28;103236;-73
2022/03/13 03:17:31;;;;;;;5.50;5.10;;;;;;;21.94;18.98;95973.72;6187752;28;103298;-74
2022/03/13 03:20:34;;;;;;;5.73;5.33;;;;;;;21.96;19.04;95978.75;6171066;28;103378;-77
2022/03/13 03:23:36;;;;;;;5.33;4.93;;;;;;;21.96;19.17;95981.41;6188634;28;102730;-75
2022/03/13 03:26:38;;;;;;;5.53;5.13;;;;;;;21.96;19.02;95976.09;6189954;28;103091;-74
2022/03/13 03:29:40;;;;;;;5.40;5.00;;;;;;;21.96;18.96;95976.88;6168103;28;104100;-74
2022/03/13 03:32:42;;;;;;;5.93;5.43;;;;;;;21.97;18.89;95973.16;6172181;28;102996;-75
2022/03/13 03:35:44;;;;;;;5.40;5.00;;;;;;;21.96;18.89;95981.41;6170054;28;103622;-74
2022/03/13 03:38:46;;;;;;;5.20;4.80;;;;;;;21.93;18.98;95972.91;6171136;28;106309;-73
2022/03/13 03:41:49;;;;;;;4.67;4.37;;;;;;;;;;6167398;28;104031;-74
2022/03/13 03:44:50;;;;;;;4.80;4.40;;;;;;;21.95;18.98;95977.16;6189482;28;103604;-74
2022/03/13 03:47:53;;;;;;;4.53;4.13;;;;;;;21.93;19.04;95970.25;6172445;28;102814;-75
2022/03/13 03:50:54;;;;;;;5.20;4.80;;;;;;;21.89;18.71;95966.56;6171752;28;104769;-74
2022/03/13 03:53:56;;;;;;;4.97;4.67;;;;;;;21.92;18.73;95976.66;6189042;28;103379;-75
2022/03/13 03:56:58;;;;;;;5.27;4.87;;;;;;;21.92;18.83;95976.66;6171511;28;106263;-76
2022/03/13 04:00:00;;;;;;;5.07;4.77;;;;;;;21.91;18.50;95967.06;6171255;28;102700;-74
2022/03/13 04:03:02;;;;;;;4.83;4.50;;;;;;;21.91;19.16;95964.41;6166976;28;103972;-73
2022/03/13 04:06:04;;;;;;;5.10;4.70;;;;;;;21.91;19.11;95961.75;6170395;28;105532;-74
2022/03/13 04:09:07;;;;;;;4.53;4.23;;;;;;;21.92;18.95;95965.22;6192946;28;103137;-74
2022/03/13 04:12:09;;;;;;;4.70;4.40;;;;;;;21.89;18.87;95963.91;6188648;28;104728;-74
2022/03/13 04:15:11;;;;;;;5.33;4.93;;;;;;;21.91;18.70;95963.63;6174631;28;103139;-74
2022/03/13 04:18:14;;;;;;;5.30;4.90;;;;;;;21.92;18.77;95967.88;6193181;28;103178;-75
2022/03/13 04:21:17;;;;;;;5.53;5.10;;;;;;;21.92;18.77;95966.00;6183026;28;103680;-74
2022/03/13 04:24:19;;;;;;;6.23;5.70;;;;;;;21.92;18.75;95967.88;6189551;28;103580;-74
2022/03/13 04:27:21;;;;;;;5.00;4.70;;;;;;;21.90;18.60;95962.03;6192856;28;103572;-75
2022/03/13 04:30:23;;;;;;;5.87;5.37;;;;;;;21.92;18.71;95965.22;6194333;28;103624;-74
2022/03/13 04:33:28;;;;;;;5.67;5.27;;;;;;;21.92;18.72;95954.56;6192539;28;104224;-74
2022/03/13 04:36:32;;;;;;;5.20;4.90;;;;;;;21.93;18.78;95958.81;6169721;28;106360;-73
2022/03/13 04:39:38;;;;;;;5.77;5.27;;;;;;;21.91;18.73;95950.31;6191093;28;103043;-74
2022/03/13 04:42:40;;;;;;;6.20;5.60;;;;;;;21.92;18.71;95955.38;6172389;28;103203;-75
2022/03/13 04:45:42;;;;;;;5.93;5.43;;;;;;;21.92;18.65;95949.25;6190162;28;103330;-75
2022/03/13 04:48:44;;;;;;;5.80;5.37;;;;;;;21.95;18.58;95961.19;6195105;28;103069;-74
2022/03/13 04:51:46;;;;;;;6.30;5.80;;;;;;;21.96;18.68;95954.81;6194047;28;103037;-76
2022/03/13 04:54:48;;;;;;;6.23;5.73;;;;;;;21.94;18.71;95960.41;6194796;28;106143;-77
2022/03/13 04:57:50;;;;;;;5.83;5.33;;;;;;;21.96;18.75;95965.44;6190164;28;103612;-75
2022/03/13 05:00:53;;;;;;;6.00;5.50;;;;;;;21.92;18.53;95955.38;6175107;28;105249;-76
2022/03/13 05:03:56;;;;;;;6.17;5.70;;;;;;;21.96;18.70;95960.91;6192301;28;102770;-75
2022/03/13 05:06:58;;;;;;;6.30;5.80;;;;;;;21.93;19.04;95967.59;6188912;28;103999;-76
2022/03/13 05:10:00;;;;;;;6.40;5.90;;;;;;;21.91;18.70;95964.41;6187607;28;103002;-74
2022/03/13 05:13:04;;;;;;;5.83;5.43;;;;;;;21.93;18.70;95967.59;6190686;28;102843;-75
2022/03/13 05:16:06;;;;;;;6.73;6.23;;;;;;;21.92;18.34;95968.66;6169502;28;103687;-77
2022/03/13 05:19:08;;;;;;;6.53;6.03;;;;;;;21.93;18.67;95967.59;6168080;28;105434;-75
2022/03/13 05:22:11;;;;;;;6.70;6.20;;;;;;;21.93;18.39;95959.59;6169114;28;103467;-73
2022/03/13 05:25:13;;;;;;;5.83;5.43;;;;;;;21.97;18.72;95967.03;6179879;28;103328;-76
2022/03/13 05:28:15;;;;;;;7.30;6.80;;;;;;;21.93;18.36;95975.56;6186103;28;103783;-75
2022/03/13 05:31:17;;;;;;;7.50;6.90;;;;;;;21.92;19.03;95975.84;6181736;28;103681;-74
2022/03/13 05:34:19;;;;;;;7.07;6.53;;;;;;;21.93;18.59;95972.91;6167526;28;103312;-76
2022/03/13 05:37:21;;;;;;;7.23;6.63;;;;;;;;;;6167113;28;103456;-76
2022/03/13 05:40:23;;;;;;;6.90;6.20;;;;;;;21.96;18.76;95989.41;6180104;28;103320;-75
2022/03/13 05:43:26;;;;;;;8.00;7.40;;;;;;;21.96;18.55;95989.41;6166992;28;103665;-76
2022/03/13 05:46:28;;;;;;;8.03;7.43;;;;;;;21.94;18.87;95981.69;6185895;28;106228;-74
2022/03/13 05:49:29;;;;;;;8.27;7.50;;;;;;;21.97;18.61;95980.34;6166783;28;103845;-75
2022/03/13 05:52:32;;;;;;;7.77;7.27;;;;;;;21.97;18.84;95988.31;6171062;28;104612;-77
2022/03/13 05:55:34;;;;;;;8.50;7.90;;;;;;;21.99;18.75;95986.19;6183884;28;103050;-76
2022/03/13 05:58:36;;;;;;;8.50;7.70;;;;;;;21.94;19.33;95984.34;6185963;28;103338;-78
2022/03/13 06:01:38;;;;;;;9.50;8.70;;;;;;;21.96;19.30;95995.50;6158221;28;107101;-75
2022/03/13 06:04:40;;;;;;;8.67;7.87;;;;;;;21.97;19.72;95991.78;6157598;28;103108;-78
2022/03/13 06:07:42;;;;;;;8.90;8.20;;;;;;;22.00;19.65;95993.88;6159862;28;103004;-74
2022/03/13 06:10:51;;;;;;;8.60;7.90;;;;;;;22.00;19.08;95999.19;6146840;28;106301;-74
2022/03/13 06:13:53;;;;;;;8.10;7.50;;;;;;;22.03;19.18;95997.88;6159597;28;103436;-74
2022/03/13 06:16:55;;;;;;;9.60;8.80;;;;;;;21.98;19.53;95998.69;6159997;28;103221;-74
2022/03/13 06:19:57;;;;;;;9.13;8.27;;;;;;;22.03;19.28;96009.31;6160067;28;103735;-73
2022/03/13 06:22:59;;;;;;;9.07;8.30;;;;;;;22.07;19.23;95998.94;6161917;28;103204;-75
2022/03/13 06:26:03;;;;;;;8.93;8.23;;;;;;;22.15;19.16;96006.34;6150371;28;103356;-74
2022/03/13 06:29:05;;;;;;;9.27;8.50;;;;;;;22.22;19.24;96001.53;6178462;28;103590;-73
2022/03/13 06:32:07;;;;;;;8.80;8.00;;;;;;;22.32;18.87;96005.97;6162154;28;103617;-75
2022/03/13 06:35:10;;;;;;;9.50;8.77;;;;;;;22.46;18.98;96013.06;6161737;28;106498;-77
2022/03/13 06:38:12;;;;;;;8.57;7.87;;;;;;;22.58;18.87;96017.25;6163229;28;103487;-73
2022/03/13 06:41:17;;;;;;;9.33;8.53;;;;;;;22.64;19.13;96010.78;6161106;28;102868;-78
2022/03/13 06:44:19;;;;;;;10.10;9.30;;;;;;;22.67;18.70;96007.56;6164055;28;103046;-76
2022/03/13 06:47:20;;;;;;;12.80;9.63;;;;;;;22.74;19.18;96008.84;6160680;28;104772;-76
2022/03/13 06:50:23;;;;;;;11.07;10.07;;;;;;;22.85;19.26;96016.78;6165425;28;104974;-77
2022/03/13 06:53:46;;;;;;;10.50;9.60;;;;;;;22.89;19.38;96015.94;6166168;28;104621;-77
2022/03/13 06:57:02;;;;;;;10.40;9.40;;;;;;;22.95;19.73;96006.81;6158198;28;103682;-78
2022/03/13 07:00:12;;;;;;;11.93;10.73;;;;;;;22.94;19.68;95999.91;6182741;28;103509;-77
2022/03/13 07:03:22;;;;;;;12.73;10.80;;;;;;;22.78;20.00;95998.41;6167007;28;103708;-77
2022/03/13 07:06:26;;;;;;;12.73;11.73;;;;;;;22.84;19.30;95996.53;6165689;28;103890;-77
2022/03/13 07:09:30;;;;;;;15.77;13.67;;;;;;;22.82;18.65;95999.47;6163133;28;103025;-74
2022/03/13 07:12:36;;;;;;;17.90;14.70;;;;;;;22.83;18.53;95995.75;6165079;28;103379;-77
2022/03/13 07:15:39;;;;;;;15.20;13.63;;;;;;;22.94;18.36;95980.47;6165420;28;102997;-73
2022/03/13 07:18:51;;;;;;;15.00;13.60;;;;;;;23.05;18.10;95982.75;6164447;28;103570;-76
2022/03/13 07:21:53;;;;;;;14.20;13.00;;;;;;;23.18;18.25;95986.63;6165861;28;102791;-76
2022/03/13 07:24:55;;;;;;;14.33;13.13;;;;;;;23.23;18.55;95977.78;6150483;28;103657;-77
2022/03/13 07:27:58;;;;;;;14.43;13.20;;;;;;;23.28;18.77;95980.38;6159352;28;103069;-77
2022/03/13 07:30:59;;;;;;;14.30;13.10;;;;;;;23.31;18.97;95991.25;6138465;28;102982;-76
2022/03/13 07:34:02;;;;;;;14.50;13.23;;;;;;;23.34;18.80;95992.56;6141453;28;103054;-76
2022/03/13 07:37:18;;;;;;;15.20;13.77;;;;;;;23.35;19.08;95994.19;6156528;28;104039;-76
2022/03/13 07:40:20;;;;;;;14.67;13.37;;;;;;;23.44;19.35;95994.34;6140958;28;103114;-74
2022/03/13 07:43:22;;;;;;;14.00;12.60;;;;;;;23.46;19.76;95992.97;6142410;28;104308;-73
2022/03/13 07:46:24;;;;;;;14.30;12.90;;;;;;;23.49;20.06;95997.72;6146059;28;103352;-75
2022/03/13 07:49:26;;;;;;;14.60;13.10;;;;;;;23.47;20.47;95999.09;6161916;28;102797;-76
2022/03/13 07:52:28;;;;;;;14.10;12.90;;;;;;;23.32;21.00;95997.38;6142005;28;103327;-78
2022/03/13 07:55:33;;;;;;;14.37;13.03;;;;;;;23.22;21.65;95997.50;6160302;28;103075;-76
2022/03/13 07:58:35;;;;;;;15.43;13.97;;;;;;;23.13;22.44;95983.19;6166144;28;103004;-76
2022/03/13 08:01:37;;;;;;;15.83;14.53;;;;;;;23.21;21.61;95990.59;6168825;28;103328;-74
2022/03/13 08:04:40;;;;;;;16.27;14.57;;;;;;;23.28;21.66;95978.50;6166105;28;103324;-81
2022/03/13 08:07:43;;;;;;;17.70;16.00;;;;;;;23.31;21.87;95980.59;6169513;28;102778;-77
2022/03/13 08:10:45;;;;;;;18.00;16.40;;;;;;;23.35;22.68;95972.84;6170289;28;103350;-77
2022/03/13 08:13:49;;;;;;;17.47;15.93;;;;;;;23.40;22.85;95965.56;6166025;28;103103;-76
2022/03/13 08:16:51;;;;;;;17.50;15.80;;;;;;;23.45;22.91;95964.72;6186146;28;103485;-78
2022/03/13 08:19:56;;;;;;;17.10;15.50;;;;;;;23.52;23.24;95954.50;6161964;28;103269;-76
2022/03/13 08:22:58;;;;;;;18.47;16.30;;;;;;;23.56;23.05;95955.50;6167048;28;102832;-75
2022/03/13 08:26:00;;;;;;;19.50;17.53;;;;;;;23.65;23.32;95953.81;6181317;28;103135;-74
2022/03/13 08:29:02;;;;;;;17.20;15.60;;;;;;;23.72;23.29;95948.13;6155751;28;105059;-77
2022/03/13 08:32:05;;;;;;;17.17;15.57;;;;;;;23.61;24.09;95962.69;6161612;28;103563;-75
2022/03/13 08:35:08;;;;;;;18.77;17.17;;;;;;;23.40;24.06;95956.78;6168646;28;104004;-75
2022/03/13 08:38:10;;;;;;;18.13;15.30;;;;;;;23.45;23.78;95956.72;6163563;28;106958;-74
2022/03/13 08:41:12;;;;;;;19.50;15.10;;;;;;;23.40;23.03;95962.09;6167736;28;103536;-75
2022/03/13 08:44:16;;;;;;;14.40;13.00;;;;;;;23.24;22.60;95953.50;6168990;28;104378;-76
2022/03/13 08:47:17;;;;;;;16.10;14.60;;;;;;;23.03;22.17;95958.25;6161761;28;105015;-76
2022/03/13 08:50:20;;;;;;;15.10;13.70;;;;;;;22.88;21.14;95954.94;6169015;28;105576;-73
2022/03/13 08:53:23;;;;;;;14.97;13.70;;;;;;;22.88;20.78;95955.75;6183784;28;103407;-76
2022/03/13 08:56:26;;;;;;;15.23;13.63;;;;;;;22.88;20.11;95944.28;6180422;28;103305;-74
2022/03/13 08:59:29;;;;;;;15.43;13.90;;;;;;;22.90;19.43;95950.91;6172374;28;103599;-74
2022/03/13 09:02:32;;;;;;;14.13;12.90;;;;;;;22.90;19.06;95945.59;6182143;28;103286;-74
2022/03/13 09:05:35;;;;;;;17.50;14.97;;;;;;;22.78;21.16;95940.59;6188855;28;102673;-74
2022/03/13 09:08:37;;;;;;;15.37;13.97;;;;;;;22.83;19.59;95934.44;6175110;28;102750;-74
2022/03/13 09:11:39;;;;;;;14.93;13.57;;;;;;;22.84;20.46;95933.38;6183745;28;103524;-75
2022/03/13 09:14:41;;;;;;;14.90;13.43;;;;;;;22.83;19.35;95936.31;6193433;28;102921;-74
2022/03/13 09:17:43;;;;;;;14.43;13.23;;;;;;;22.93;19.25;95930.91;6166356;28;104896;-75
2022/03/13 09:20:45;;;;;;;15.73;13.33;;;;;;;22.97;18.82;95932.72;6159083;28;103273;-75
2022/03/13 09:23:47;;;;;;;14.47;13.17;;;;;;;23.01;18.57;95916.94;6189664;28;106716;-76
2022/03/13 09:26:49;;;;;;;15.20;13.63;;;;;;;22.96;19.04;95917.00;6174857;28;105658;-77
2022/03/13 09:29:51;;;;;;;13.70;12.40;;;;;;;22.99;18.12;95913.78;6175785;28;103307;-78
2022/03/13 09:32:53;;;;;;;15.53;13.87;;;;;;;22.97;18.43;95911.41;6173125;28;103137;-75
2022/03/13 09:35:55;;;;;;;15.40;13.97;;;;;;;22.91;18.12;95911.75;6193266;28;104358;-74
2022/03/13 09:38:57;;;;;;;14.70;13.43;;;;;;;22.87;19.18;95911.53;6202777;28;102700;-76
2022/03/13 09:41:59;;;;;;;14.60;13.50;;;;;;;22.86;18.49;95904.59;6188849;28;103174;-74
2022/03/13 09:45:01;;;;;;;14.53;13.20;;;;;;;22.91;18.73;95911.75;6178487;28;105067;-79
2022/03/13 09:48:06;;;;;;;16.10;14.50;;;;;;;22.90;18.32;95907.50;6201665;28;102747;-79
2022/03/13 09:51:09;;;;;;;17.40;16.10;;;;;;;22.89;18.50;95904.03;6191947;28;103025;-75
2022/03/13 09:54:11;;;;;;;18.37;16.50;;;;;;;23.03;18.58;95902.28;6172133;28;103411;-78
2022/03/13 09:57:12;;;;;;;16.93;15.73;;;;;;;23.03;19.61;95894.28;6178079;28;102879;-77
2022/03/13 10:00:17;;;;;;;18.90;17.50;;;;;;;23.07;19.77;95889.19;6178202;28;107799;-75
2022/03/13 10:03:19;;;;;;;18.23;16.87;;;;;;;23.06;19.99;95887.59;6190243;28;103053;-78
2022/03/13 10:06:21;;;;;;;17.50;16.30;;;;;;;23.13;20.01;95882.69;6148317;28;103639;-80
2022/03/13 10:09:26;;;;;;;22.33;20.57;;;;;;;23.20;20.21;95880.50;6167189;28;102795;-80
2022/03/13 10:12:29;;;;;;;28.70;26.80;;;;;;;23.17;20.93;95877.59;6192659;28;103341;-74
2022/03/13 10:15:40;;;;;;;28.43;26.53;;;;;;;23.28;20.80;95868.38;6172529;28;102716;-78
2022/03/13 10:18:42;;;;;;;31.90;30.00;;;;;;;23.28;20.73;95863.06;6184539;28;103070;-78
2022/03/13 10:22:01;;;;;;;37.30;35.10;;;;;;;23.35;21.88;95874.97;6197474;28;102687;-78
2022/03/13 10:25:05;;;;;;;40.97;38.57;;;;;;;23.41;21.37;95865.03;6151757;28;103338;-78
2022/03/13 10:28:25;;;;;;;43.47;40.97;;;;;;;23.46;21.61;95867.59;6165361;28;103034;-76
2022/03/13 10:31:28;;;;;;;45.17;42.27;;;;;;;23.31;21.40;95862.47;6179323;28;103389;-82
2022/03/13 10:34:31;;;;;;;46.53;43.83;;;;;;;23.23;21.76;95850.59;6192713;28;103224;-76
2022/03/13 10:37:38;;;;;;;49.03;46.43;;;;;;;23.29;21.76;95857.44;6173623;28;104868;-76
2022/03/13 10:40:40;;;;;;;53.23;50.40;;;;;;;23.34;21.88;95859.22;6206722;28;102990;-78
2022/03/13 10:43:46;;;;;;;53.00;50.20;;;;;;;23.40;22.01;95850.91;6180400;28;103280;-77
2022/03/13 10:46:57;;;;;;;54.20;51.30;;;;;;;23.44;21.69;95861.78;6176746;28;103077;-77
2022/03/13 10:50:00;;;;;;;56.00;53.00;;;;;;;23.42;22.17;95845.28;6198247;28;103195;-76
2022/03/13 10:53:12;;;;;;;55.60;52.70;;;;;;;23.43;22.34;95844.19;6216384;28;104663;-76
2022/03/13 10:56:20;;;;;;;56.67;53.47;;;;;;;23.41;21.94;95846.34;6193082;28;103533;-76
2022/03/13 10:59:22;;;;;;;53.70;50.87;;;;;;;23.39;22.37;95837.84;6190128;28;103367;-80
2022/03/13 11:02:29;;;;;;;54.17;51.07;;;;;;;23.40;22.02;95844.75;6167701;28;103322;-80
2022/03/13 11:05:31;;;;;;;52.70;49.90;;;;;;;23.36;22.36;95843.75;6170273;28;103128;-75
2022/03/13 11:08:36;;;;;;;53.33;50.43;;;;;;;23.33;22.31;95839.78;6160944;28;103416;-78
2022/03/13 11:11:40;;;;;;;52.10;48.97;;;;;;;23.27;22.22;95824.13;6155766;28;104586;-78
2022/03/13 11:14:44;;;;;;;51.37;48.57;;;;;;;23.23;22.54;95823.94;6166686;28;103538;-78
2022/03/13 11:17:48;;;;;;;49.90;47.00;;;;;;;23.21;22.70;95819.97;6166283;28;104617;-79
2022/03/13 11:20:50;;;;;;;48.33;45.57;;;;;;;23.17;22.47;95818.94;6164827;28;103079;-77
2022/03/13 11:23:52;;;;;;;47.33;44.23;;;;;;;23.13;22.41;95817.94;6164462;28;102903;-77
2022/03/13 11:26:56;;;;;;;45.00;42.40;;;;;;;23.08;22.42;95811.59;6167870;28;106620;-77
2022/03/13 11:29:58;;;;;;;44.23;41.83;;;;;;;23.07;22.68;95819.88;6166536;28;103084;-78
2022/03/13 11:33:02;;;;;;;43.30;40.90;;;;;;;23.01;22.78;95808.50;6167170;28;104162;-77
2022/03/13 11:36:25;;;;;;;42.23;39.83;;;;;;;22.94;22.74;95816.03;6168268;28;102863;-77
2022/03/13 11:39:30;;;;;;;35.47;33.17;;;;;;;22.87;21.72;95809.47;6168773;28;105962;-79
2022/03/13 11:42:47;;;;;;;33.27;31.00;;;;;;;22.84;22.82;95810.81;6166782;28;103072;-76
2022/03/13 11:45:59;;;;;;;30.73;28.50;;;;;;;22.64;21.79;95821.69;6156054;28;103389;-72
2022/03/13 11:49:14;;;;;;;24.90;22.93;;;;;;;22.42;21.45;95809.66;6159122;28;103693;-75
2022/03/13 11:52:20;;;;;;;22.17;20.30;;;;;;;22.34;21.17;95806.81;6159924;28;103676;-74
2022/03/13 11:55:22;;;;;;;21.00;19.30;;;;;;;22.11;20.92;95800.38;6163496;28;103024;-78
2022/03/13 11:58:50;;;;;;;20.33;18.53;;;;;;;22.31;21.06;95805.50;6162463;28;106285;-77
2022/03/13 12:01:55;;;;;;;19.90;18.20;;;;;;;22.46;20.91;95794.69;6176394;28;103599;-74
2022/03/13 12:05:25;;;;;;;17.30;15.90;;;;;;;22.74;21.31;95786.94;6178743;28;104128;-75
2022/03/13 12:09:06;;;;;;;18.33;16.50;;;;;;;23.06;21.30;95787.09;6167058;28;107372;-76
2022/03/13 12:12:12;;;;;;;17.20;15.70;;;;;;;23.24;21.45;95776.72;6173112;28;103106;-76
2022/03/13 12:15:21;;;;;;;17.73;16.17;;;;;;;23.32;21.28;95763.53;6164552;28;103797;-75
2022/03/13 12:18:32;;;;;;;16.40;14.93;;;;;;;23.39;21.18;95760.50;6180860;28;103552;-74
2022/03/13 12:21:34;;;;;;;15.43;14.03;;;;;;;23.45;21.71;95758.56;6167194;28;103663;-75
2022/03/13 12:24:53;;;;;;;15.17;13.80;;;;;;;23.52;21.47;95775.78;6184401;28;104288;-74
2022/03/13 12:27:55;;;;;;;14.77;13.47;;;;;;;23.55;22.01;95772.53;6167023;28;103405;-75
2022/03/13 12:31:01;;;;;;;14.03;12.70;;;;;;;23.54;21.66;95768.28;6176662;28;103481;-78
2022/03/13 12:34:05;;;;;;;14.10;12.90;;;;;;;23.58;21.71;95769.31;6193155;28;102708;-74
2022/03/13 12:37:09;;;;;;;13.70;12.47;;;;;;;23.60;22.12;95775.16;6186605;28;105224;-76
2022/03/13 12:40:12;;;;;;;12.53;11.33;;;;;;;23.58;22.13;95760.53;6190041;28;103054;-75
2022/03/13 12:43:14;;;;;;;12.23;11.23;;;;;;;23.59;22.29;95768.22;6174947;28;103435;-77
2022/03/13 12:46:18;;;;;;;13.10;11.83;;;;;;;23.59;22.17;95765.56;6169715;28;103459;-75
2022/03/13 12:49:29;;;;;;;13.43;12.20;;;;;;;23.60;22.31;95771.69;6173268;28;103019;-75
2022/03/13 12:52:30;;;;;;;12.00;10.90;;;;;;;23.54;22.43;95768.28;6162261;28;103820;-76
2022/03/13 12:55:33;;;;;;;12.70;11.50;;;;;;;23.52;22.38;95775.78;6177046;28;106455;-74
2022/03/13 12:58:45;;;;;;;11.27;10.27;;;;;;;23.52;22.89;95769.66;6176593;28;103658;-75
2022/03/13 13:02:06;;;;;;;10.90;9.90;;;;;;;23.46;22.65;95776.94;6190657;28;103238;-75
2022/03/13 13:05:12;;;;;;;12.00;11.00;;;;;;;23.44;22.94;95771.09;6174909;28;103051;-74
2022/03/13 13:08:14;;;;;;;11.80;10.80;;;;;;;23.42;22.85;95762.59;6175103;28;103488;-77
2022/03/13 13:11:37;;;;;;;11.10;10.00;;;;;;;23.42;23.52;95765.25;6173400;28;102954;-76
2022/03/13 13:14:40;;;;;;;11.40;10.40;;;;;;;23.35;23.29;95768.31;6160796;28;104153;-74
2022/03/13 13:17:45;;;;;;;11.40;10.40;;;;;;;23.33;23.68;95758.97;6193769;28;103502;-76
2022/03/13 13:20:50;;;;;;;11.70;9.97;;;;;;;23.29;23.15;95752.66;6175528;28;104141;-73
2022/03/13 13:23:52;;;;;;;11.00;10.10;;;;;;;23.28;23.81;95756.41;6172159;28;103495;-75
2022/03/13 13:26:54;;;;;;;9.40;8.50;;;;;;;23.31;23.53;95761.94;6175727;28;102718;-74
2022/03/13 13:30:31;;;;;;;9.40;8.63;;;;;;;23.28;23.76;95757.19;6159413;28;103984;-75
2022/03/13 13:33:33;;;;;;;10.23;9.27;;;;;;;23.26;23.72;95758.56;6155486;28;103481;-75
2022/03/13 13:36:35;;;;;;;8.73;8.03;;;;;;;23.27;24.00;95760.94;6172531;28;103191;-75
2022/03/13 13:39:37;;;;;;;9.27;8.47;;;;;;;23.25;24.18;95756.97;6174363;28;103202;-79
2022/03/13 13:42:39;;;;;;;9.60;8.67;;;;;;;23.23;23.93;95759.94;6176370;28;104201;-74
2022/03/13 13:45:46;;;;;;;8.77;8.17;;;;;;;23.22;24.05;95769.03;6189615;28;105349;-76
2022/03/13 13:48:49;;;;;;;8.43;7.73;;;;;;;23.24;24.13;95760.72;6175656;28;105050;-73
2022/03/13 13:51:51;;;;;;;8.80;8.00;;;;;;;23.19;24.12;95758.94;6191051;28;102697;-73
2022/03/13 13:54:54;;;;;;;8.90;7.63;;;;;;;23.21;24.35;95767.44;6192506;28;104275;-75
2022/03/13 13:58:16;;;;;;;7.87;7.27;;;;;;;23.22;24.48;95760.22;6188677;28;103222;-74
2022/03/13 14:01:32;;;;;;;8.70;7.90;;;;;;;23.26;24.65;95762.03;6190124;28;104127;-77
2022/03/13 14:04:46;;;;;;;8.17;7.53;;;;;;;23.21;24.80;95762.09;6190381;28;103009;-72
2022/03/13 14:07:48;;;;;;;7.43;6.80;;;;;;;23.21;24.65;95758.66;6188885;28;104190;-74
2022/03/13 14:10:50;;;;;;;7.53;6.73;;;;;;;23.20;25.16;95757.84;6176908;28;104934;-76